createdAt,value
2017-08-26T00:00:52.107Z,3.90
2017-08-26T00:03:18.728Z,4.23
2017-08-26T00:05:45.360Z,3.80
2017-08-26T00:08:11.977Z,4.27
2017-08-26T00:10:38.609Z,4.37
2017-08-26T00:13:05.231Z,4.80
2017-08-26T00:15:31.906Z,4.60
2017-08-26T00:17:58.502Z,6.73
2017-08-26T00:20:25.111Z,7.23
2017-08-26T00:22:51.746Z,6.43
2017-08-26T00:25:18.379Z,6.10
2017-08-26T00:27:45.015Z,5.10
2017-08-26T00:30:11.636Z,5.50
2017-08-26T00:32:38.267Z,5.57
2017-08-26T00:35:04.912Z,7.00
2017-08-26T00:37:31.515Z,5.30
2017-08-26T00:39:58.159Z,7.70
2017-08-26T00:42:24.797Z,5.77
2017-08-26T00:44:51.399Z,6.27
2017-08-26T00:47:18.039Z,6.17
2017-08-26T00:49:44.669Z,5.70
2017-08-26T00:52:11.303Z,5.57
2017-08-26T00:54:37.944Z,5.57
2017-08-26T00:57:04.563Z,5.50
2017-08-26T00:59:31.205Z,5.40
2017-08-26T01:01:57.834Z,6.90
2017-08-26T01:04:24.474Z,5.00
2017-08-26T01:06:51.110Z,5.10
2017-08-26T01:09:17.752Z,5.20
2017-08-26T01:11:44.391Z,4.97
2017-08-26T01:14:11.026Z,6.47
2017-08-26T01:16:37.667Z,5.57
2017-08-26T01:19:04.259Z,5.50
2017-08-26T01:21:30.895Z,5.57
2017-08-26T01:23:57.514Z,5.63
2017-08-26T01:26:24.154Z,5.50
2017-08-26T01:28:50.764Z,6.03
2017-08-26T01:31:17.371Z,6.83
2017-08-26T01:33:44.025Z,5.70
2017-08-26T01:36:10.663Z,5.70
2017-08-26T01:38:37.283Z,5.50
2017-08-26T01:41:03.925Z,4.20
2017-08-26T01:43:30.554Z,5.23
2017-08-26T01:45:57.179Z,5.60
2017-08-26T01:48:23.807Z,6.10
2017-08-26T01:50:50.422Z,5.00
2017-08-26T01:53:17.058Z,4.93
2017-08-26T01:55:43.666Z,5.00
2017-08-26T01:58:10.278Z,5.50
2017-08-26T02:00:36.900Z,6.17
2017-08-26T02:03:03.539Z,4.33
2017-08-26T02:05:30.149Z,5.33
2017-08-26T02:07:56.789Z,5.20
2017-08-26T02:10:23.398Z,4.97
2017-08-26T02:12:50.018Z,5.73
2017-08-26T02:15:16.657Z,5.67
2017-08-26T02:17:43.298Z,5.33
2017-08-26T02:20:09.926Z,5.37
2017-08-26T02:22:36.548Z,5.20
2017-08-26T02:25:03.188Z,6.07
2017-08-26T02:27:29.807Z,4.97
2017-08-26T02:29:56.429Z,5.73
2017-08-26T02:32:23.067Z,4.53
2017-08-26T02:34:49.688Z,5.37
2017-08-26T02:37:16.319Z,5.03
2017-08-26T02:39:42.923Z,5.70
2017-08-26T02:42:09.570Z,5.63
2017-08-26T02:44:36.208Z,5.73
2017-08-26T02:47:02.859Z,5.37
2017-08-26T02:49:29.482Z,5.40
2017-08-26T02:51:56.106Z,5.33
2017-08-26T02:54:22.746Z,4.90
2017-08-26T02:56:49.356Z,5.77
2017-08-26T02:59:15.988Z,6.30
2017-08-26T03:01:42.595Z,5.20
2017-08-26T03:04:09.222Z,6.20
2017-08-26T03:06:35.839Z,6.83
2017-08-26T03:09:02.453Z,5.97
2017-08-26T03:11:29.094Z,5.30
2017-08-26T03:13:55.731Z,5.23
2017-08-26T03:16:22.371Z,6.50
2017-08-26T03:18:48.983Z,4.80
2017-08-26T03:21:15.634Z,6.07
2017-08-26T03:23:42.250Z,6.73
2017-08-26T03:26:08.890Z,5.83
2017-08-26T03:28:35.510Z,5.40
2017-08-26T03:31:02.154Z,6.20
2017-08-26T03:33:28.792Z,5.07
2017-08-26T03:35:55.414Z,5.20
2017-08-26T03:38:22.032Z,5.30
2017-08-26T03:40:48.670Z,5.47
2017-08-26T03:43:15.290Z,5.37
2017-08-26T03:45:41.935Z,6.30
2017-08-26T03:48:08.564Z,6.70
2017-08-26T03:50:35.182Z,5.80
2017-08-26T03:53:01.791Z,5.20
2017-08-26T03:55:28.419Z,6.27
2017-08-26T03:57:55.078Z,5.73
2017-08-26T04:00:21.702Z,5.90
2017-08-26T04:02:48.356Z,7.30
2017-08-26T04:05:14.962Z,6.53
2017-08-26T04:07:41.610Z,8.60
2017-08-26T04:10:08.230Z,6.30
2017-08-26T04:12:34.831Z,6.53
2017-08-26T04:15:01.490Z,6.73
2017-08-26T04:17:28.099Z,7.03
2017-08-26T04:19:54.707Z,6.60
2017-08-26T04:22:21.367Z,8.00
2017-08-26T04:24:47.991Z,7.40
2017-08-26T04:27:14.622Z,7.77
2017-08-26T04:29:41.230Z,6.97
2017-08-26T04:32:07.858Z,7.37
2017-08-26T04:34:34.503Z,7.90
2017-08-26T04:37:01.113Z,8.00
2017-08-26T04:39:27.735Z,6.90
2017-08-26T04:41:54.367Z,7.17
2017-08-26T04:44:20.978Z,7.37
2017-08-26T04:46:47.619Z,8.23
2017-08-26T04:49:14.267Z,8.53
2017-08-26T04:51:40.862Z,8.43
2017-08-26T04:54:07.475Z,7.60
2017-08-26T04:56:34.109Z,8.37
2017-08-26T04:59:00.753Z,8.77
2017-08-26T05:01:27.384Z,9.07
2017-08-26T05:03:53.999Z,10.43
2017-08-26T05:06:20.634Z,9.40
2017-08-26T05:08:47.255Z,8.80
2017-08-26T05:11:13.897Z,8.70
2017-08-26T05:13:40.505Z,8.03
2017-08-26T05:16:07.137Z,7.60
2017-08-26T05:18:33.787Z,7.63
2017-08-26T05:21:00.424Z,8.13
2017-08-26T05:23:27.066Z,7.40
2017-08-26T05:25:53.695Z,8.70
2017-08-26T05:28:20.318Z,8.87
2017-08-26T05:30:46.958Z,9.23
2017-08-26T05:33:13.607Z,8.90
2017-08-26T05:35:40.237Z,12.47
2017-08-26T05:38:06.850Z,10.30
2017-08-26T05:40:33.474Z,8.63
2017-08-26T05:43:00.118Z,10.50
2017-08-26T05:45:26.754Z,10.20
2017-08-26T05:47:53.403Z,7.80
2017-08-26T05:50:20.019Z,7.60
2017-08-26T05:52:46.628Z,8.63
2017-08-26T05:55:13.259Z,9.17
2017-08-26T05:57:39.869Z,7.37
2017-08-26T06:00:06.502Z,7.70
2017-08-26T06:02:33.132Z,8.70
2017-08-26T06:04:59.771Z,8.17
2017-08-26T06:07:26.422Z,10.93
2017-08-26T06:09:53.075Z,11.10
2017-08-26T06:12:19.728Z,11.33
2017-08-26T06:14:46.355Z,9.43
2017-08-26T06:17:13.019Z,9.23
2017-08-26T06:19:39.635Z,9.57
2017-08-26T06:22:06.299Z,9.20
2017-08-26T06:24:32.902Z,14.53
2017-08-26T06:26:59.540Z,19.13
2017-08-26T06:29:26.171Z,17.40
2017-08-26T06:31:52.804Z,14.93
2017-08-26T06:34:19.458Z,14.90
2017-08-26T06:36:46.095Z,16.57
2017-08-26T06:39:12.726Z,17.77
2017-08-26T06:41:39.346Z,23.67
2017-08-26T06:44:06.003Z,21.20
2017-08-26T06:46:32.646Z,27.47
2017-08-26T06:48:59.275Z,26.10
2017-08-26T06:51:25.961Z,23.97
2017-08-26T06:53:52.619Z,24.53
2017-08-26T06:56:19.262Z,23.43
2017-08-26T06:58:45.880Z,22.47
2017-08-26T07:01:12.535Z,21.80
2017-08-26T07:03:39.139Z,19.57
2017-08-26T07:06:05.775Z,21.63
2017-08-26T07:08:32.414Z,21.10
2017-08-26T07:10:59.066Z,19.70
2017-08-26T07:13:25.680Z,21.30
2017-08-26T07:15:52.311Z,21.00
2017-08-26T07:18:18.931Z,25.97
2017-08-26T07:20:46.499Z,27.53
2017-08-26T07:23:13.130Z,27.50
2017-08-26T07:25:39.755Z,28.70
2017-08-26T07:28:06.398Z,26.90
2017-08-26T07:30:33.024Z,27.83
2017-08-26T07:32:59.653Z,24.93
2017-08-26T07:35:26.307Z,27.27
2017-08-26T07:37:52.955Z,26.70
2017-08-26T07:40:19.617Z,26.77
2017-08-26T07:42:46.242Z,26.43
2017-08-26T07:45:12.899Z,28.10
2017-08-26T07:47:39.535Z,30.20
2017-08-26T07:50:06.155Z,29.77
2017-08-26T07:52:32.842Z,30.13
2017-08-26T07:54:59.471Z,31.67
2017-08-26T07:57:26.094Z,33.50
2017-08-26T07:59:52.742Z,31.30
2017-08-26T08:02:19.359Z,32.80
2017-08-26T08:04:46.020Z,31.17
2017-08-26T08:07:12.647Z,29.77
2017-08-26T08:09:39.263Z,30.63
2017-08-26T08:12:05.910Z,32.67
2017-08-26T08:14:32.543Z,33.17
2017-08-26T08:16:59.156Z,31.07
2017-08-26T08:19:25.796Z,33.40
2017-08-26T08:21:52.437Z,34.87
2017-08-26T08:24:19.090Z,34.73
2017-08-26T08:26:45.708Z,34.40
2017-08-26T08:29:12.328Z,36.47
2017-08-26T08:31:38.986Z,39.70
2017-08-26T08:34:05.622Z,38.33
2017-08-26T08:36:32.262Z,35.93
2017-08-26T08:38:58.891Z,35.70
2017-08-26T08:41:25.522Z,36.77
2017-08-26T08:43:52.167Z,35.90
2017-08-26T08:46:18.812Z,37.23
2017-08-26T08:48:45.468Z,38.37
2017-08-26T08:51:12.083Z,37.53
2017-08-26T08:53:38.719Z,37.07
2017-08-26T08:56:05.351Z,36.93
2017-08-26T08:58:31.981Z,34.87
2017-08-26T09:00:58.615Z,38.50
2017-08-26T09:03:25.287Z,39.30
2017-08-26T09:05:51.913Z,39.60
2017-08-26T09:08:18.550Z,46.10
2017-08-26T09:10:45.202Z,44.23
2017-08-26T09:13:11.842Z,42.90
2017-08-26T09:15:38.485Z,42.67
2017-08-26T09:18:05.131Z,45.23
2017-08-26T09:20:31.746Z,43.00
2017-08-26T09:22:58.371Z,43.57
2017-08-26T09:25:24.992Z,41.63
2017-08-26T09:27:51.629Z,39.43
2017-08-26T09:30:18.263Z,36.60
2017-08-26T09:32:44.895Z,39.27
2017-08-26T09:35:11.519Z,39.27
2017-08-26T09:37:38.172Z,38.77
2017-08-26T09:40:04.814Z,38.40
2017-08-26T09:42:31.436Z,39.87
2017-08-26T09:44:58.091Z,35.67
2017-08-26T09:47:24.711Z,36.07
2017-08-26T09:49:51.366Z,38.83
2017-08-26T09:52:18.016Z,39.17
2017-08-26T09:54:44.639Z,38.47
2017-08-26T09:57:11.256Z,36.57
2017-08-26T09:59:37.881Z,40.00
2017-08-26T10:02:04.527Z,38.23
2017-08-26T10:04:31.164Z,39.20
2017-08-26T10:06:57.799Z,39.33
2017-08-26T10:09:24.460Z,37.77
2017-08-26T10:11:51.102Z,39.40
2017-08-26T10:14:17.753Z,40.43
2017-08-26T10:16:44.374Z,41.20
2017-08-26T10:19:11.611Z,37.73
2017-08-26T10:21:38.247Z,41.30
2017-08-26T10:24:04.888Z,35.50
2017-08-26T10:26:31.511Z,39.47
2017-08-26T10:28:58.166Z,38.63
2017-08-26T10:31:24.835Z,39.20
2017-08-26T10:33:51.485Z,39.30
2017-08-26T10:36:18.126Z,39.60
2017-08-26T10:38:44.771Z,39.13
2017-08-26T10:41:11.422Z,38.20
2017-08-26T10:43:38.060Z,36.50
2017-08-26T10:46:04.727Z,36.67
2017-08-26T10:48:31.348Z,35.50
2017-08-26T10:50:57.995Z,33.87
2017-08-26T10:53:24.619Z,38.43
2017-08-26T10:55:51.255Z,38.60
2017-08-26T10:58:17.917Z,41.03
2017-08-26T11:00:44.543Z,40.30
2017-08-26T11:03:11.183Z,39.63
2017-08-26T11:05:37.816Z,42.83
2017-08-26T11:08:04.440Z,38.93
2017-08-26T11:10:31.072Z,41.80
2017-08-26T11:12:57.706Z,40.47
2017-08-26T11:15:24.333Z,40.63
2017-08-26T11:17:50.955Z,43.57
2017-08-26T11:20:17.607Z,42.83
2017-08-26T11:22:44.256Z,43.30
2017-08-26T11:25:10.910Z,38.97
2017-08-26T11:27:37.542Z,40.73
2017-08-26T11:30:04.180Z,42.47
2017-08-26T11:32:30.807Z,47.20
2017-08-26T11:34:57.446Z,41.90
2017-08-26T11:37:24.083Z,44.37
2017-08-26T11:39:50.718Z,41.10
2017-08-26T11:42:17.379Z,42.07
2017-08-26T11:44:44.042Z,39.70
2017-08-26T11:47:10.659Z,40.73
2017-08-26T11:49:37.313Z,38.40
2017-08-26T11:52:03.981Z,36.70
2017-08-26T11:54:30.623Z,33.17
2017-08-26T11:56:57.252Z,29.47
2017-08-26T11:59:23.876Z,34.30
2017-08-26T12:01:50.511Z,33.57
2017-08-26T12:04:17.139Z,30.43
2017-08-26T12:06:43.817Z,30.90
2017-08-26T12:09:10.699Z,33.40
2017-08-26T12:11:37.309Z,34.57
2017-08-26T12:14:03.968Z,34.80
2017-08-26T12:16:30.576Z,32.90
2017-08-26T12:18:57.215Z,31.17
2017-08-26T12:21:23.852Z,33.37
2017-08-26T12:23:50.493Z,29.27
2017-08-26T12:26:17.134Z,24.50
2017-08-26T12:28:43.795Z,24.00
2017-08-26T12:31:10.407Z,18.23
2017-08-26T12:33:37.054Z,18.77
2017-08-26T12:36:03.706Z,24.83
2017-08-26T12:38:30.327Z,27.20
2017-08-26T12:40:56.982Z,25.27
2017-08-26T12:43:23.619Z,25.00
2017-08-26T12:45:50.235Z,23.83
2017-08-26T12:48:16.878Z,17.70
2017-08-26T12:50:43.514Z,15.80
2017-08-26T12:53:10.180Z,13.10
2017-08-26T12:55:36.799Z,13.13
2017-08-26T12:58:03.460Z,17.10
2017-08-26T13:00:30.102Z,15.57
2017-08-26T13:02:56.753Z,17.50
2017-08-26T13:05:23.397Z,15.90
2017-08-26T13:07:50.019Z,18.07
2017-08-26T13:10:16.661Z,15.13
2017-08-26T13:12:43.274Z,13.13
2017-08-26T13:15:09.955Z,12.33
2017-08-26T13:17:36.704Z,15.47
2017-08-26T13:20:03.380Z,17.00
2017-08-26T13:22:30.035Z,13.40
2017-08-26T13:24:56.675Z,13.67
2017-08-26T13:27:23.330Z,13.40
2017-08-26T13:29:49.972Z,13.27
2017-08-26T13:32:16.619Z,15.50
2017-08-26T13:34:43.246Z,13.53
2017-08-26T13:37:09.886Z,14.93
2017-08-26T13:39:36.530Z,11.93
2017-08-26T13:42:03.145Z,10.67
2017-08-26T13:44:29.797Z,9.37
2017-08-26T13:46:56.444Z,9.50
2017-08-26T13:49:23.087Z,10.50
2017-08-26T13:51:49.738Z,9.40
2017-08-26T13:54:16.402Z,7.83
2017-08-26T13:56:43.010Z,10.03
2017-08-26T13:59:09.630Z,8.67
2017-08-26T14:01:36.270Z,9.90
2017-08-26T14:04:02.911Z,8.60
2017-08-26T14:06:29.564Z,10.70
2017-08-26T14:08:56.208Z,11.00
2017-08-26T14:11:22.836Z,12.07
2017-08-26T14:13:49.484Z,11.30
2017-08-26T14:16:16.099Z,13.60
2017-08-26T14:18:42.751Z,11.40
2017-08-26T14:21:09.372Z,10.00
2017-08-26T14:23:36.001Z,13.03
2017-08-26T14:26:02.638Z,11.30
2017-08-26T14:28:29.279Z,10.90
2017-08-26T14:30:55.933Z,16.47
2017-08-26T14:33:22.559Z,14.40
2017-08-26T14:35:49.188Z,12.30
2017-08-26T14:38:15.825Z,16.93
2017-08-26T14:40:42.466Z,15.80
2017-08-26T14:43:09.083Z,13.77
2017-08-26T14:45:35.695Z,12.10
2017-08-26T14:48:02.341Z,10.80
2017-08-26T14:50:28.980Z,12.73
2017-08-26T14:52:55.606Z,11.50
2017-08-26T14:55:22.238Z,9.80
2017-08-26T14:57:48.871Z,8.20
2017-08-26T15:00:15.503Z,8.27
2017-08-26T15:02:42.138Z,7.50
2017-08-26T15:05:08.784Z,10.77
2017-08-26T15:07:35.430Z,17.87
2017-08-26T15:10:02.079Z,13.37
2017-08-26T15:12:28.725Z,11.17
2017-08-26T15:14:55.382Z,15.30
2017-08-26T15:17:22.010Z,16.33
2017-08-26T15:19:48.649Z,12.10
2017-08-26T15:22:15.287Z,12.00
2017-08-26T15:24:41.931Z,12.40
2017-08-26T15:27:08.555Z,12.63
2017-08-26T15:29:35.214Z,12.77
2017-08-26T15:32:01.867Z,17.00
2017-08-26T15:34:28.498Z,20.97
2017-08-26T15:36:55.151Z,15.27
2017-08-26T15:39:21.769Z,13.47
2017-08-26T15:41:48.410Z,15.60
2017-08-26T15:44:15.033Z,12.50
2017-08-26T15:46:41.667Z,14.40
2017-08-26T15:49:08.356Z,10.40
2017-08-26T15:51:34.971Z,14.17
2017-08-26T15:54:01.620Z,12.80
2017-08-26T15:56:28.249Z,10.27
2017-08-26T15:58:54.895Z,14.30
2017-08-26T16:01:21.548Z,13.50
2017-08-26T16:03:48.167Z,10.87
2017-08-26T16:06:14.826Z,11.60
2017-08-26T16:08:41.446Z,11.90
2017-08-26T16:11:08.112Z,10.97
2017-08-26T16:13:34.731Z,12.63
2017-08-26T16:16:01.358Z,17.67
2017-08-26T16:18:28.042Z,13.17
2017-08-26T16:20:54.679Z,14.60
2017-08-26T16:23:21.326Z,19.60
2017-08-26T16:25:47.962Z,20.83
2017-08-26T16:28:14.574Z,16.80
2017-08-26T16:30:41.210Z,16.30
2017-08-26T16:33:07.827Z,15.30
2017-08-26T16:35:34.468Z,13.93
2017-08-26T16:38:01.120Z,14.47
2017-08-26T16:40:27.750Z,14.03
2017-08-26T16:42:54.395Z,10.93
2017-08-26T16:45:21.023Z,11.70
2017-08-26T16:47:47.668Z,11.67
2017-08-26T16:50:14.306Z,12.73
2017-08-26T16:52:40.939Z,16.67
2017-08-26T16:55:07.572Z,14.23
2017-08-26T16:57:34.215Z,9.90
2017-08-26T17:00:00.859Z,10.30
2017-08-26T17:02:27.488Z,10.53
2017-08-26T17:04:54.110Z,11.53
2017-08-26T17:07:20.767Z,11.40
2017-08-26T17:09:47.463Z,11.27
2017-08-26T17:12:14.111Z,9.47
2017-08-26T17:14:40.750Z,10.23
2017-08-26T17:17:07.395Z,9.63
2017-08-26T17:19:34.029Z,10.03
2017-08-26T17:22:00.650Z,10.10
2017-08-26T17:24:27.291Z,9.53
2017-08-26T17:26:53.952Z,8.00
2017-08-26T17:29:20.586Z,8.20
2017-08-26T17:31:47.220Z,7.30
2017-08-26T17:34:13.862Z,8.83
2017-08-26T17:36:40.499Z,8.27
2017-08-26T17:39:07.169Z,10.07
2017-08-26T17:41:33.774Z,8.47
2017-08-26T17:44:00.395Z,8.30
2017-08-26T17:46:27.022Z,7.87
2017-08-26T17:48:53.651Z,8.47
2017-08-26T17:51:20.292Z,8.47
2017-08-26T17:53:46.938Z,9.10
2017-08-26T17:56:13.620Z,7.70
2017-08-26T17:58:40.245Z,8.57
2017-08-26T18:01:06.994Z,10.60
2017-08-26T18:03:34.479Z,10.00
2017-08-26T18:06:01.126Z,11.03
2017-08-26T18:08:27.757Z,9.37
2017-08-26T18:10:54.389Z,9.10
2017-08-26T18:13:21.014Z,9.70
2017-08-26T18:15:47.645Z,8.50
2017-08-26T18:18:14.278Z,10.90
2017-08-26T18:20:40.930Z,9.80
2017-08-26T18:23:07.551Z,9.77
2017-08-26T18:25:34.208Z,10.43
2017-08-26T18:28:03.622Z,10.57
2017-08-26T18:30:30.234Z,10.23
2017-08-26T18:32:56.884Z,9.40
2017-08-26T18:35:23.492Z,9.00
2017-08-26T18:37:50.131Z,10.17
2017-08-26T18:40:16.742Z,10.00
2017-08-26T18:42:43.394Z,8.80
2017-08-26T18:45:10.042Z,9.43
2017-08-26T18:47:36.653Z,9.30
2017-08-26T18:50:03.310Z,9.70
2017-08-26T18:52:29.965Z,9.20
2017-08-26T18:54:56.638Z,11.30
2017-08-26T18:57:23.297Z,11.30
2017-08-26T18:59:49.967Z,9.97
2017-08-26T19:02:16.628Z,10.87
2017-08-26T19:04:43.244Z,10.80
2017-08-26T19:07:09.878Z,11.97
2017-08-26T19:09:36.507Z,13.10
2017-08-26T19:12:03.155Z,14.50
2017-08-26T19:14:29.795Z,13.43
2017-08-26T19:16:56.435Z,11.10
2017-08-26T19:19:23.076Z,11.80
2017-08-26T19:21:49.733Z,10.27
2017-08-26T19:24:16.367Z,10.83
2017-08-26T19:26:43.011Z,15.73
2017-08-26T19:29:09.640Z,14.00
2017-08-26T19:31:36.279Z,14.43
2017-08-26T19:34:02.914Z,13.90
2017-08-26T19:36:29.560Z,13.73
2017-08-26T19:38:56.198Z,14.10
2017-08-26T19:41:22.852Z,12.17
2017-08-26T19:43:49.471Z,11.80
2017-08-26T19:46:16.135Z,13.20
2017-08-26T19:48:42.775Z,13.40
2017-08-26T19:51:09.418Z,13.20
2017-08-26T19:53:36.064Z,13.67
2017-08-26T19:56:02.704Z,12.77
2017-08-26T19:58:29.382Z,12.97
2017-08-26T20:00:56.048Z,13.73
2017-08-26T20:03:22.670Z,13.47
2017-08-26T20:05:49.327Z,13.00
2017-08-26T20:08:15.944Z,13.27
2017-08-26T20:10:42.589Z,14.90
2017-08-26T20:13:09.249Z,12.33
2017-08-26T20:15:35.873Z,12.40
2017-08-26T20:18:02.510Z,14.20
2017-08-26T20:20:29.178Z,15.30
2017-08-26T20:22:55.856Z,15.43
2017-08-26T20:25:22.492Z,15.70
2017-08-26T20:27:49.116Z,14.73
2017-08-26T20:30:15.734Z,18.00
2017-08-26T20:32:42.376Z,18.87
2017-08-26T20:35:09.005Z,17.17
2017-08-26T20:37:35.691Z,17.50
2017-08-26T20:40:02.315Z,19.20
2017-08-26T20:42:28.959Z,20.40
2017-08-26T20:44:55.879Z,18.77
2017-08-26T20:47:22.595Z,19.17
2017-08-26T20:49:49.249Z,18.60
2017-08-26T20:52:15.890Z,21.40
2017-08-26T20:54:42.551Z,19.90
2017-08-26T20:57:09.215Z,18.83
2017-08-26T20:59:37.728Z,19.97
2017-08-26T21:02:04.388Z,18.30
2017-08-26T21:04:31.064Z,19.23
2017-08-26T21:06:57.695Z,19.40
2017-08-26T21:09:24.326Z,17.43
2017-08-26T21:11:51.002Z,19.10
2017-08-26T21:14:17.644Z,19.00
2017-08-26T21:16:44.265Z,20.00
2017-08-26T21:19:11.485Z,20.73
2017-08-26T21:21:38.122Z,19.20
2017-08-26T21:24:04.763Z,18.83
2017-08-26T21:26:31.464Z,16.10
2017-08-26T21:28:58.091Z,18.70
2017-08-26T21:31:24.712Z,19.60
2017-08-26T21:33:51.395Z,20.13
2017-08-26T21:36:18.020Z,19.73
2017-08-26T21:38:44.682Z,16.60
2017-08-26T21:41:11.327Z,18.17
2017-08-26T21:43:37.968Z,16.90
2017-08-26T21:46:04.580Z,17.77
2017-08-26T21:48:31.211Z,18.03
2017-08-26T21:50:57.834Z,15.07
2017-08-26T21:53:24.509Z,18.13
2017-08-26T21:55:51.131Z,16.67
2017-08-26T21:58:17.769Z,17.87
2017-08-26T22:00:44.402Z,22.17
2017-08-26T22:03:11.031Z,17.30
2017-08-26T22:05:37.684Z,18.07
2017-08-26T22:08:04.307Z,16.07
2017-08-26T22:10:30.933Z,17.10
2017-08-26T22:12:57.558Z,17.97
2017-08-26T22:15:24.187Z,16.43
2017-08-26T22:17:50.804Z,17.80
2017-08-26T22:20:17.441Z,17.10
2017-08-26T22:22:44.083Z,18.23
2017-08-26T22:25:10.707Z,16.97
2017-08-26T22:27:37.360Z,18.90
2017-08-26T22:30:03.979Z,20.47
2017-08-26T22:32:30.618Z,18.10
2017-08-26T22:34:57.265Z,18.97
2017-08-26T22:37:23.923Z,18.47
2017-08-26T22:39:50.572Z,18.90
2017-08-26T22:42:17.220Z,17.60
2017-08-26T22:44:43.870Z,17.00
2017-08-26T22:47:10.518Z,19.53
2017-08-26T22:49:37.142Z,17.80
2017-08-26T22:52:03.805Z,18.60
2017-08-26T22:54:30.412Z,18.20
2017-08-26T22:56:57.038Z,21.57
2017-08-26T22:59:23.675Z,20.50
2017-08-26T23:01:50.294Z,20.70
2017-08-26T23:04:16.928Z,18.80
2017-08-26T23:06:43.559Z,18.90
2017-08-26T23:09:10.187Z,16.60
2017-08-26T23:11:36.848Z,18.43
2017-08-26T23:14:03.466Z,17.20
2017-08-26T23:16:30.134Z,16.53
2017-08-26T23:18:56.783Z,18.17
2017-08-26T23:21:23.439Z,18.87
2017-08-26T23:23:50.076Z,17.80
2017-08-26T23:26:16.704Z,20.00
2017-08-26T23:28:43.319Z,19.53
2017-08-26T23:31:09.977Z,19.40
2017-08-26T23:33:36.601Z,18.87
2017-08-26T23:36:03.255Z,19.23
2017-08-26T23:38:29.891Z,20.80
2017-08-26T23:40:56.516Z,19.23
2017-08-26T23:43:23.185Z,18.07
2017-08-26T23:45:49.817Z,20.00
2017-08-26T23:48:16.464Z,18.27
2017-08-26T23:50:43.084Z,18.40
2017-08-26T23:53:09.726Z,17.73
2017-08-26T23:55:36.355Z,19.90
2017-08-26T23:58:02.998Z,21.67
